sensor_id;sensor_type;location;lat;lon;timestamp;P1;durP1;ratioP1;P2;durP2;ratioP2
66521;SDS011;53349;53.538;8.584;2024-03-23T00:54:37;21.70;;;2.50;;
66521;SDS011;53349;53.538;8.584;2024-03-23T00:57:02;9.20;;;2.20;;
66521;SDS011;53349;53.538;8.584;2024-03-23T00:59:27;15.73;;;2.70;;
66521;SDS011;53349;53.538;8.584;2024-03-23T01:01:53;19.47;;;2.73;;
66521;SDS011;53349;53.538;8.584;2024-03-23T01:04:18;14.73;;;2.20;;
66521;SDS011;53349;53.538;8.584;2024-03-23T01:06:43;14.33;;;2.43;;
66521;SDS011;53349;53.538;8.584;2024-03-23T01:09:09;18.42;;;2.13;;
66521;SDS011;53349;53.538;8.584;2024-03-23T01:11:34;14.90;;;2.23;;
66521;SDS011;53349;53.538;8.584;2024-03-23T01:14:00;10.37;;;1.90;;
66521;SDS011;53349;53.538;8.584;2024-03-23T01:16:25;15.77;;;2.73;;
66521;SDS011;53349;53.538;8.584;2024-03-23T01:18:50;11.97;;;2.30;;
66521;SDS011;53349;53.538;8.584;2024-03-23T01:21:15;15.97;;;3.17;;
66521;SDS011;53349;53.538;8.584;2024-03-23T01:23:41;17.57;;;2.50;;
66521;SDS011;53349;53.538;8.584;2024-03-23T01:26:06;13.45;;;2.78;;
66521;SDS011;53349;53.538;8.584;2024-03-23T01:28:31;18.92;;;3.45;;
66521;SDS011;53349;53.538;8.584;2024-03-23T01:30:57;14.60;;;2.30;;
66521;SDS011;53349;53.538;8.584;2024-03-23T01:33:22;16.37;;;2.50;;
66521;SDS011;53349;53.538;8.584;2024-03-23T01:35:48;12.70;;;2.40;;
66521;SDS011;53349;53.538;8.584;2024-03-23T01:38:13;19.83;;;2.30;;
66521;SDS011;53349;53.538;8.584;2024-03-23T01:40:38;15.90;;;2.27;;
66521;SDS011;53349;53.538;8.584;2024-03-23T01:43:07;14.40;;;2.00;;
66521;SDS011;53349;53.538;8.584;2024-03-23T01:45:33;16.42;;;2.45;;
66521;SDS011;53349;53.538;8.584;2024-03-23T01:47:59;17.42;;;2.42;;
66521;SDS011;53349;53.538;8.584;2024-03-23T01:50:24;19.00;;;2.33;;
66521;SDS011;53349;53.538;8.584;2024-03-23T01:52:50;14.20;;;2.70;;
66521;SDS011;53349;53.538;8.584;2024-03-23T01:55:16;16.90;;;2.90;;
66521;SDS011;53349;53.538;8.584;2024-03-23T01:57:41;14.77;;;2.70;;
66521;SDS011;53349;53.538;8.584;2024-03-23T02:00:07;17.43;;;2.40;;
66521;SDS011;53349;53.538;8.584;2024-03-23T02:02:32;15.13;;;2.28;;
66521;SDS011;53349;53.538;8.584;2024-03-23T02:04:58;16.80;;;2.70;;
66521;SDS011;53349;53.538;8.584;2024-03-23T02:07:23;19.13;;;2.23;;
66521;SDS011;53349;53.538;8.584;2024-03-23T02:09:49;16.60;;;2.58;;
66521;SDS011;53349;53.538;8.584;2024-03-23T02:12:15;17.20;;;2.30;;
66521;SDS011;53349;53.538;8.584;2024-03-23T02:14:41;16.88;;;2.33;;
66521;SDS011;53349;53.538;8.584;2024-03-23T02:17:07;13.93;;;2.60;;
66521;SDS011;53349;53.538;8.584;2024-03-23T02:19:33;15.23;;;2.37;;
66521;SDS011;53349;53.538;8.584;2024-03-23T02:21:58;15.75;;;2.58;;
66521;SDS011;53349;53.538;8.584;2024-03-23T02:24:24;15.00;;;2.60;;
66521;SDS011;53349;53.538;8.584;2024-03-23T02:26:49;16.63;;;2.30;;
66521;SDS011;53349;53.538;8.584;2024-03-23T02:29:14;14.93;;;2.37;;
66521;SDS011;53349;53.538;8.584;2024-03-23T02:31:40;13.37;;;2.50;;
66521;SDS011;53349;53.538;8.584;2024-03-23T02:34:05;17.50;;;2.30;;
66521;SDS011;53349;53.538;8.584;2024-03-23T02:36:31;13.20;;;2.17;;
66521;SDS011;53349;53.538;8.584;2024-03-23T02:38:56;17.95;;;2.63;;
66521;SDS011;53349;53.538;8.584;2024-03-23T02:41:21;14.82;;;2.05;;
66521;SDS011;53349;53.538;8.584;2024-03-23T02:43:48;17.77;;;2.50;;
66521;SDS011;53349;53.538;8.584;2024-03-23T02:46:14;17.63;;;2.57;;
66521;SDS011;53349;53.538;8.584;2024-03-23T02:48:39;19.00;;;2.45;;
66521;SDS011;53349;53.538;8.584;2024-03-23T02:51:04;14.97;;;2.03;;
66521;SDS011;53349;53.538;8.584;2024-03-23T02:53:30;15.27;;;2.30;;
66521;SDS011;53349;53.538;8.584;2024-03-23T02:55:57;16.47;;;2.23;;
66521;SDS011;53349;53.538;8.584;2024-03-23T02:58:23;14.27;;;2.15;;
66521;SDS011;53349;53.538;8.584;2024-03-23T03:00:48;13.20;;;2.10;;
66521;SDS011;53349;53.538;8.584;2024-03-23T03:03:13;18.13;;;2.20;;
66521;SDS011;53349;53.538;8.584;2024-03-23T03:05:39;13.47;;;2.07;;
66521;SDS011;53349;53.538;8.584;2024-03-23T03:08:04;19.70;;;2.27;;
66521;SDS011;53349;53.538;8.584;2024-03-23T03:10:30;16.75;;;2.17;;
66521;SDS011;53349;53.538;8.584;2024-03-23T03:12:55;16.77;;;2.07;;
66521;SDS011;53349;53.538;8.584;2024-03-23T03:15:20;19.80;;;2.17;;
66521;SDS011;53349;53.538;8.584;2024-03-23T03:17:46;14.43;;;2.77;;
66521;SDS011;53349;53.538;8.584;2024-03-23T03:20:11;12.90;;;2.60;;
66521;SDS011;53349;53.538;8.584;2024-03-23T03:22:36;17.63;;;2.40;;
66521;SDS011;53349;53.538;8.584;2024-03-23T03:25:02;13.27;;;2.17;;
66521;SDS011;53349;53.538;8.584;2024-03-23T03:27:27;13.27;;;2.67;;
66521;SDS011;53349;53.538;8.584;2024-03-23T03:29:52;18.57;;;2.63;;
66521;SDS011;53349;53.538;8.584;2024-03-23T03:32:18;16.93;;;2.50;;
66521;SDS011;53349;53.538;8.584;2024-03-23T03:34:43;17.60;;;3.07;;
66521;SDS011;53349;53.538;8.584;2024-03-23T03:37:08;16.83;;;2.80;;
66521;SDS011;53349;53.538;8.584;2024-03-23T03:39:34;19.17;;;2.83;;
66521;SDS011;53349;53.538;8.584;2024-03-23T03:41:59;14.47;;;2.50;;
66521;SDS011;53349;53.538;8.584;2024-03-23T03:44:24;16.70;;;2.70;;
66521;SDS011;53349;53.538;8.584;2024-03-23T03:46:50;16.80;;;2.70;;
66521;SDS011;53349;53.538;8.584;2024-03-23T03:49:15;15.65;;;2.60;;
66521;SDS011;53349;53.538;8.584;2024-03-23T03:51:40;16.15;;;2.60;;
66521;SDS011;53349;53.538;8.584;2024-03-23T03:54:06;15.83;;;2.80;;
66521;SDS011;53349;53.538;8.584;2024-03-23T03:56:31;20.10;;;3.23;;
66521;SDS011;53349;53.538;8.584;2024-03-23T03:58:56;15.83;;;3.13;;
66521;SDS011;53349;53.538;8.584;2024-03-23T04:01:22;16.53;;;2.60;;
66521;SDS011;53349;53.538;8.584;2024-03-23T04:03:47;19.07;;;3.30;;
66521;SDS011;53349;53.538;8.584;2024-03-23T04:06:18;16.10;;;3.60;;
66521;SDS011;53349;53.538;8.584;2024-03-23T04:08:44;16.65;;;2.70;;
66521;SDS011;53349;53.538;8.584;2024-03-23T04:11:09;13.27;;;2.30;;
66521;SDS011;53349;53.538;8.584;2024-03-23T04:13:34;17.37;;;3.20;;
66521;SDS011;53349;53.538;8.584;2024-03-23T04:16:00;16.57;;;2.37;;
66521;SDS011;53349;53.538;8.584;2024-03-23T04:18:25;12.93;;;2.60;;
66521;SDS011;53349;53.538;8.584;2024-03-23T04:20:51;14.70;;;2.50;;
66521;SDS011;53349;53.538;8.584;2024-03-23T04:23:16;14.07;;;2.55;;
66521;SDS011;53349;53.538;8.584;2024-03-23T04:25:42;14.02;;;2.10;;
66521;SDS011;53349;53.538;8.584;2024-03-23T04:28:07;11.00;;;2.10;;
66521;SDS011;53349;53.538;8.584;2024-03-23T04:30:32;18.37;;;2.90;;
66521;SDS011;53349;53.538;8.584;2024-03-23T04:32:58;15.37;;;2.53;;
66521;SDS011;53349;53.538;8.584;2024-03-23T04:35:24;15.53;;;2.40;;
66521;SDS011;53349;53.538;8.584;2024-03-23T04:37:49;18.80;;;2.60;;
66521;SDS011;53349;53.538;8.584;2024-03-23T04:40:14;11.87;;;2.50;;
66521;SDS011;53349;53.538;8.584;2024-03-23T04:42:40;16.03;;;2.70;;
66521;SDS011;53349;53.538;8.584;2024-03-23T04:45:05;9.43;;;2.13;;
66521;SDS011;53349;53.538;8.584;2024-03-23T04:47:31;14.95;;;2.50;;
66521;SDS011;53349;53.538;8.584;2024-03-23T04:49:56;12.88;;;2.83;;
66521;SDS011;53349;53.538;8.584;2024-03-23T04:52:21;12.30;;;2.50;;
66521;SDS011;53349;53.538;8.584;2024-03-23T04:54:47;14.23;;;2.80;;
66521;SDS011;53349;53.538;8.584;2024-03-23T04:57:12;14.77;;;2.40;;
66521;SDS011;53349;53.538;8.584;2024-03-23T04:59:37;13.77;;;2.87;;
66521;SDS011;53349;53.538;8.584;2024-03-23T05:02:03;13.47;;;2.63;;
66521;SDS011;53349;53.538;8.584;2024-03-23T05:04:28;16.17;;;2.67;;
66521;SDS011;53349;53.538;8.584;2024-03-23T05:06:53;13.75;;;3.20;;
66521;SDS011;53349;53.538;8.584;2024-03-23T05:09:19;20.50;;;2.88;;
66521;SDS011;53349;53.538;8.584;2024-03-23T05:11:44;17.17;;;2.67;;
66521;SDS011;53349;53.538;8.584;2024-03-23T05:14:10;19.17;;;2.80;;
66521;SDS011;53349;53.538;8.584;2024-03-23T05:16:37;15.93;;;2.90;;
66521;SDS011;53349;53.538;8.584;2024-03-23T05:19:02;19.60;;;3.10;;
66521;SDS011;53349;53.538;8.584;2024-03-23T05:21:27;18.70;;;3.30;;
66521;SDS011;53349;53.538;8.584;2024-03-23T05:23:53;15.67;;;3.27;;
66521;SDS011;53349;53.538;8.584;2024-03-23T05:26:19;19.98;;;3.17;;
66521;SDS011;53349;53.538;8.584;2024-03-23T05:28:44;19.03;;;3.63;;
66521;SDS011;53349;53.538;8.584;2024-03-23T05:31:09;32.80;;;5.17;;
66521;SDS011;53349;53.538;8.584;2024-03-23T05:33:37;15.43;;;2.90;;
66521;SDS011;53349;53.538;8.584;2024-03-23T05:36:03;13.20;;;2.70;;
66521;SDS011;53349;53.538;8.584;2024-03-23T05:38:29;22.77;;;3.00;;
66521;SDS011;53349;53.538;8.584;2024-03-23T05:40:58;16.23;;;3.10;;
66521;SDS011;53349;53.538;8.584;2024-03-23T05:43:24;10.80;;;2.67;;
66521;SDS011;53349;53.538;8.584;2024-03-23T05:45:53;14.37;;;2.53;;
66521;SDS011;53349;53.538;8.584;2024-03-23T05:48:19;15.30;;;3.10;;
66521;SDS011;53349;53.538;8.584;2024-03-23T05:50:45;17.77;;;3.30;;
66521;SDS011;53349;53.538;8.584;2024-03-23T05:53:10;15.30;;;3.10;;
66521;SDS011;53349;53.538;8.584;2024-03-23T05:55:35;17.27;;;3.40;;
66521;SDS011;53349;53.538;8.584;2024-03-23T05:58:01;14.50;;;2.83;;
66521;SDS011;53349;53.538;8.584;2024-03-23T06:00:26;13.37;;;3.13;;
66521;SDS011;53349;53.538;8.584;2024-03-23T06:02:51;21.67;;;3.40;;
66521;SDS011;53349;53.538;8.584;2024-03-23T06:05:17;15.83;;;2.77;;
66521;SDS011;53349;53.538;8.584;2024-03-23T06:07:42;13.47;;;2.60;;
66521;SDS011;53349;53.538;8.584;2024-03-23T06:10:07;17.07;;;2.50;;
66521;SDS011;53349;53.538;8.584;2024-03-23T06:12:33;17.00;;;2.90;;
66521;SDS011;53349;53.538;8.584;2024-03-23T06:14:59;14.47;;;2.70;;
66521;SDS011;53349;53.538;8.584;2024-03-23T06:17:25;12.47;;;3.13;;
66521;SDS011;53349;53.538;8.584;2024-03-23T06:19:50;12.50;;;2.50;;
66521;SDS011;53349;53.538;8.584;2024-03-23T06:22:15;12.07;;;2.20;;
66521;SDS011;53349;53.538;8.584;2024-03-23T06:24:41;15.27;;;2.43;;
66521;SDS011;53349;53.538;8.584;2024-03-23T06:27:06;14.97;;;2.50;;
66521;SDS011;53349;53.538;8.584;2024-03-23T06:29:31;13.10;;;2.73;;
66521;SDS011;53349;53.538;8.584;2024-03-23T06:31:57;19.70;;;3.00;;
66521;SDS011;53349;53.538;8.584;2024-03-23T06:34:22;16.02;;;2.50;;
66521;SDS011;53349;53.538;8.584;2024-03-23T06:36:48;19.60;;;2.97;;
66521;SDS011;53349;53.538;8.584;2024-03-23T06:39:13;14.23;;;2.17;;
66521;SDS011;53349;53.538;8.584;2024-03-23T06:41:39;16.53;;;2.40;;
66521;SDS011;53349;53.538;8.584;2024-03-23T06:44:04;10.68;;;2.00;;
66521;SDS011;53349;53.538;8.584;2024-03-23T06:46:29;10.60;;;2.05;;
66521;SDS011;53349;53.538;8.584;2024-03-23T06:48:55;12.33;;;2.20;;
66521;SDS011;53349;53.538;8.584;2024-03-23T06:51:20;14.40;;;2.50;;
66521;SDS011;53349;53.538;8.584;2024-03-23T06:53:45;10.23;;;2.47;;
66521;SDS011;53349;53.538;8.584;2024-03-23T06:56:11;12.80;;;2.20;;
66521;SDS011;53349;53.538;8.584;2024-03-23T06:58:37;18.50;;;5.60;;
66521;SDS011;53349;53.538;8.584;2024-03-23T07:01:03;19.73;;;7.07;;
66521;SDS011;53349;53.538;8.584;2024-03-23T07:03:28;35.67;;;11.53;;
66521;SDS011;53349;53.538;8.584;2024-03-23T07:05:57;15.57;;;3.70;;
66521;SDS011;53349;53.538;8.584;2024-03-23T07:08:23;17.77;;;3.25;;
66521;SDS011;53349;53.538;8.584;2024-03-23T07:10:48;17.27;;;3.47;;
66521;SDS011;53349;53.538;8.584;2024-03-23T07:13:13;12.83;;;2.87;;
66521;SDS011;53349;53.538;8.584;2024-03-23T07:15:39;12.37;;;2.87;;
66521;SDS011;53349;53.538;8.584;2024-03-23T07:18:04;10.70;;;2.20;;
66521;SDS011;53349;53.538;8.584;2024-03-23T07:20:30;11.87;;;2.30;;
66521;SDS011;53349;53.538;8.584;2024-03-23T07:22:55;12.77;;;2.23;;
66521;SDS011;53349;53.538;8.584;2024-03-23T07:25:20;12.70;;;2.00;;
66521;SDS011;53349;53.538;8.584;2024-03-23T07:27:45;13.73;;;2.53;;
66521;SDS011;53349;53.538;8.584;2024-03-23T07:30:11;13.00;;;2.27;;
66521;SDS011;53349;53.538;8.584;2024-03-23T07:32:36;14.30;;;2.45;;
66521;SDS011;53349;53.538;8.584;2024-03-23T07:35:01;10.68;;;2.90;;
66521;SDS011;53349;53.538;8.584;2024-03-23T07:37:27;12.57;;;2.50;;
66521;SDS011;53349;53.538;8.584;2024-03-23T07:39:52;10.47;;;2.77;;
66521;SDS011;53349;53.538;8.584;2024-03-23T07:42:17;13.17;;;2.50;;
66521;SDS011;53349;53.538;8.584;2024-03-23T07:44:43;13.63;;;2.30;;
66521;SDS011;53349;53.538;8.584;2024-03-23T07:47:08;11.13;;;2.33;;
66521;SDS011;53349;53.538;8.584;2024-03-23T07:49:33;14.23;;;2.70;;
66521;SDS011;53349;53.538;8.584;2024-03-23T07:51:59;14.30;;;2.80;;
66521;SDS011;53349;53.538;8.584;2024-03-23T07:54:24;11.47;;;2.27;;
66521;SDS011;53349;53.538;8.584;2024-03-23T07:56:49;11.55;;;2.08;;
66521;SDS011;53349;53.538;8.584;2024-03-23T07:59:15;9.15;;;1.65;;
66521;SDS011;53349;53.538;8.584;2024-03-23T08:01:40;9.93;;;2.10;;
66521;SDS011;53349;53.538;8.584;2024-03-23T08:04:05;13.27;;;2.43;;
66521;SDS011;53349;53.538;8.584;2024-03-23T08:06:31;12.60;;;2.33;;
66521;SDS011;53349;53.538;8.584;2024-03-23T08:08:56;10.67;;;2.20;;
66521;SDS011;53349;53.538;8.584;2024-03-23T08:11:22;12.80;;;2.40;;
66521;SDS011;53349;53.538;8.584;2024-03-23T08:13:47;8.00;;;2.13;;
66521;SDS011;53349;53.538;8.584;2024-03-23T08:16:13;11.73;;;2.10;;
66521;SDS011;53349;53.538;8.584;2024-03-23T08:18:38;12.13;;;2.30;;
66521;SDS011;53349;53.538;8.584;2024-03-23T08:21:05;12.75;;;2.53;;
66521;SDS011;53349;53.538;8.584;2024-03-23T08:23:34;8.63;;;2.40;;
66521;SDS011;53349;53.538;8.584;2024-03-23T08:26:00;12.50;;;2.80;;
66521;SDS011;53349;53.538;8.584;2024-03-23T08:28:26;14.45;;;3.20;;
66521;SDS011;53349;53.538;8.584;2024-03-23T08:30:52;14.60;;;2.20;;
66521;SDS011;53349;53.538;8.584;2024-03-23T08:33:18;9.38;;;1.85;;
66521;SDS011;53349;53.538;8.584;2024-03-23T08:35:58;12.93;;;2.10;;
66521;SDS011;53349;53.538;8.584;2024-03-23T08:38:24;12.90;;;2.08;;
66521;SDS011;53349;53.538;8.584;2024-03-23T08:41:00;10.27;;;1.80;;
66521;SDS011;53349;53.538;8.584;2024-03-23T08:43:48;11.67;;;1.93;;
66521;SDS011;53349;53.538;8.584;2024-03-23T08:46:15;9.23;;;1.83;;
66521;SDS011;53349;53.538;8.584;2024-03-23T08:48:44;11.02;;;1.75;;
66521;SDS011;53349;53.538;8.584;2024-03-23T08:51:11;8.00;;;1.48;;
66521;SDS011;53349;53.538;8.584;2024-03-23T08:53:38;8.50;;;2.05;;
66521;SDS011;53349;53.538;8.584;2024-03-23T08:56:04;9.17;;;1.87;;
66521;SDS011;53349;53.538;8.584;2024-03-23T08:58:30;8.65;;;2.10;;
66521;SDS011;53349;53.538;8.584;2024-03-23T09:00:57;10.18;;;1.90;;
66521;SDS011;53349;53.538;8.584;2024-03-23T09:03:28;8.63;;;1.50;;
66521;SDS011;53349;53.538;8.584;2024-03-23T09:05:53;10.37;;;1.53;;
66521;SDS011;53349;53.538;8.584;2024-03-23T09:08:19;8.10;;;1.50;;
66521;SDS011;53349;53.538;8.584;2024-03-23T09:10:44;9.30;;;1.83;;
66521;SDS011;53349;53.538;8.584;2024-03-23T09:13:10;9.55;;;1.67;;
66521;SDS011;53349;53.538;8.584;2024-03-23T09:15:36;8.03;;;1.60;;
66521;SDS011;53349;53.538;8.584;2024-03-23T09:18:03;9.02;;;1.48;;
66521;SDS011;53349;53.538;8.584;2024-03-23T09:20:29;9.00;;;1.50;;
66521;SDS011;53349;53.538;8.584;2024-03-23T09:22:57;7.55;;;1.23;;
66521;SDS011;53349;53.538;8.584;2024-03-23T09:25:23;8.65;;;1.45;;
66521;SDS011;53349;53.538;8.584;2024-03-23T09:27:50;8.43;;;1.40;;
66521;SDS011;53349;53.538;8.584;2024-03-23T09:30:15;6.57;;;1.45;;
66521;SDS011;53349;53.538;8.584;2024-03-23T09:32:42;8.00;;;1.50;;
66521;SDS011;53349;53.538;8.584;2024-03-23T09:35:08;8.18;;;1.85;;
66521;SDS011;53349;53.538;8.584;2024-03-23T09:37:33;7.73;;;1.40;;
66521;SDS011;53349;53.538;8.584;2024-03-23T09:39:59;11.17;;;1.90;;
66521;SDS011;53349;53.538;8.584;2024-03-23T09:42:24;9.23;;;2.00;;
66521;SDS011;53349;53.538;8.584;2024-03-23T09:44:50;9.40;;;1.67;;
66521;SDS011;53349;53.538;8.584;2024-03-23T09:47:17;8.90;;;1.95;;
66521;SDS011;53349;53.538;8.584;2024-03-23T09:49:42;7.53;;;1.52;;
66521;SDS011;53349;53.538;8.584;2024-03-23T09:52:08;11.27;;;1.77;;
66521;SDS011;53349;53.538;8.584;2024-03-23T09:54:33;7.77;;;1.47;;
66521;SDS011;53349;53.538;8.584;2024-03-23T09:56:59;10.38;;;1.63;;
66521;SDS011;53349;53.538;8.584;2024-03-23T09:59:24;7.88;;;1.38;;
66521;SDS011;53349;53.538;8.584;2024-03-23T10:01:49;8.80;;;1.53;;
66521;SDS011;53349;53.538;8.584;2024-03-23T10:07:12;7.10;;;1.58;;
66521;SDS011;53349;53.538;8.584;2024-03-23T10:09:39;10.00;;;1.70;;
66521;SDS011;53349;53.538;8.584;2024-03-23T10:12:08;7.38;;;1.50;;
66521;SDS011;53349;53.538;8.584;2024-03-23T10:14:35;9.52;;;1.70;;
66521;SDS011;53349;53.538;8.584;2024-03-23T10:17:19;6.97;;;1.10;;
66521;SDS011;53349;53.538;8.584;2024-03-23T10:19:48;6.82;;;1.48;;
66521;SDS011;53349;53.538;8.584;2024-03-23T10:22:18;6.40;;;1.25;;
66521;SDS011;53349;53.538;8.584;2024-03-23T10:24:44;6.75;;;1.05;;
66521;SDS011;53349;53.538;8.584;2024-03-23T10:27:16;7.10;;;1.30;;
66521;SDS011;53349;53.538;8.584;2024-03-23T10:29:46;5.82;;;1.00;;
66521;SDS011;53349;53.538;8.584;2024-03-23T10:32:13;5.78;;;1.17;;
66521;SDS011;53349;53.538;8.584;2024-03-23T10:34:40;7.78;;;1.30;;
66521;SDS011;53349;53.538;8.584;2024-03-23T10:37:06;6.87;;;1.37;;
66521;SDS011;53349;53.538;8.584;2024-03-23T10:39:36;8.93;;;1.45;;
66521;SDS011;53349;53.538;8.584;2024-03-23T10:42:03;7.85;;;1.23;;
66521;SDS011;53349;53.538;8.584;2024-03-23T10:44:30;7.65;;;1.63;;
66521;SDS011;53349;53.538;8.584;2024-03-23T10:46:57;8.40;;;1.60;;
66521;SDS011;53349;53.538;8.584;2024-03-23T10:49:26;8.35;;;1.33;;
66521;SDS011;53349;53.538;8.584;2024-03-23T10:51:52;7.57;;;1.80;;
66521;SDS011;53349;53.538;8.584;2024-03-23T10:54:18;6.75;;;1.30;;
66521;SDS011;53349;53.538;8.584;2024-03-23T10:56:44;6.67;;;1.50;;
66521;SDS011;53349;53.538;8.584;2024-03-23T10:59:11;4.88;;;1.10;;
66521;SDS011;53349;53.538;8.584;2024-03-23T11:01:53;7.88;;;0.98;;
66521;SDS011;53349;53.538;8.584;2024-03-23T11:09:51;4.43;;;0.90;;
66521;SDS011;53349;53.538;8.584;2024-03-23T11:14:53;6.30;;;0.63;;
66521;SDS011;53349;53.538;8.584;2024-03-23T11:17:23;4.05;;;0.68;;
66521;SDS011;53349;53.538;8.584;2024-03-23T11:20:07;3.33;;;0.60;;
66521;SDS011;53349;53.538;8.584;2024-03-23T11:22:39;3.07;;;0.50;;
66521;SDS011;53349;53.538;8.584;2024-03-23T11:25:16;4.25;;;0.57;;
66521;SDS011;53349;53.538;8.584;2024-03-23T11:27:43;3.03;;;0.63;;
66521;SDS011;53349;53.538;8.584;2024-03-23T11:30:11;5.90;;;0.50;;
66521;SDS011;53349;53.538;8.584;2024-03-23T11:32:36;5.30;;;0.70;;
66521;SDS011;53349;53.538;8.584;2024-03-23T11:35:02;4.20;;;0.60;;
66521;SDS011;53349;53.538;8.584;2024-03-23T11:37:27;4.20;;;0.67;;
66521;SDS011;53349;53.538;8.584;2024-03-23T11:39:52;3.33;;;0.80;;
66521;SDS011;53349;53.538;8.584;2024-03-23T11:42:18;4.60;;;1.33;;
66521;SDS011;53349;53.538;8.584;2024-03-23T11:44:43;8.30;;;1.20;;
66521;SDS011;53349;53.538;8.584;2024-03-23T11:47:09;7.03;;;1.00;;
66521;SDS011;53349;53.538;8.584;2024-03-23T11:49:34;5.00;;;0.98;;
66521;SDS011;53349;53.538;8.584;2024-03-23T11:52:00;2.90;;;0.50;;
66521;SDS011;53349;53.538;8.584;2024-03-23T11:54:25;4.43;;;0.80;;
66521;SDS011;53349;53.538;8.584;2024-03-23T11:56:58;5.38;;;0.80;;
66521;SDS011;53349;53.538;8.584;2024-03-23T12:01:59;4.63;;;0.70;;
66521;SDS011;53349;53.538;8.584;2024-03-23T12:04:27;3.17;;;0.70;;
66521;SDS011;53349;53.538;8.584;2024-03-23T12:07:09;5.40;;;0.63;;
66521;SDS011;53349;53.538;8.584;2024-03-23T12:09:37;5.25;;;0.95;;
66521;SDS011;53349;53.538;8.584;2024-03-23T12:12:16;6.67;;;0.90;;
66521;SDS011;53349;53.538;8.584;2024-03-23T12:15:01;3.38;;;0.88;;
66521;SDS011;53349;53.538;8.584;2024-03-23T12:17:30;4.40;;;0.90;;
66521;SDS011;53349;53.538;8.584;2024-03-23T12:19:55;5.77;;;1.00;;
66521;SDS011;53349;53.538;8.584;2024-03-23T12:22:21;6.13;;;0.90;;
66521;SDS011;53349;53.538;8.584;2024-03-23T12:24:46;5.38;;;0.70;;
66521;SDS011;53349;53.538;8.584;2024-03-23T12:27:13;4.65;;;0.75;;
66521;SDS011;53349;53.538;8.584;2024-03-23T12:29:38;2.90;;;0.70;;
66521;SDS011;53349;53.538;8.584;2024-03-23T12:32:03;3.00;;;0.50;;
66521;SDS011;53349;53.538;8.584;2024-03-23T12:34:29;5.47;;;0.82;;
66521;SDS011;53349;53.538;8.584;2024-03-23T12:36:54;5.20;;;0.63;;
66521;SDS011;53349;53.538;8.584;2024-03-23T12:39:20;5.37;;;0.80;;
66521;SDS011;53349;53.538;8.584;2024-03-23T12:41:45;3.58;;;0.77;;
66521;SDS011;53349;53.538;8.584;2024-03-23T12:44:11;5.53;;;0.88;;
66521;SDS011;53349;53.538;8.584;2024-03-23T12:46:36;4.87;;;0.80;;
66521;SDS011;53349;53.538;8.584;2024-03-23T12:49:01;5.07;;;1.13;;
66521;SDS011;53349;53.538;8.584;2024-03-23T12:51:27;4.13;;;1.00;;
66521;SDS011;53349;53.538;8.584;2024-03-23T12:53:52;7.47;;;0.83;;
66521;SDS011;53349;53.538;8.584;2024-03-23T12:56:17;4.87;;;0.97;;
66521;SDS011;53349;53.538;8.584;2024-03-23T12:58:43;6.20;;;1.27;;
66521;SDS011;53349;53.538;8.584;2024-03-23T13:01:08;4.75;;;1.10;;
66521;SDS011;53349;53.538;8.584;2024-03-23T13:03:33;5.27;;;1.10;;
66521;SDS011;53349;53.538;8.584;2024-03-23T13:05:59;4.40;;;1.10;;
66521;SDS011;53349;53.538;8.584;2024-03-23T13:08:24;4.70;;;1.27;;
66521;SDS011;53349;53.538;8.584;2024-03-23T13:10:52;5.20;;;0.93;;
66521;SDS011;53349;53.538;8.584;2024-03-23T13:13:18;4.82;;;1.00;;
66521;SDS011;53349;53.538;8.584;2024-03-23T13:15:49;3.10;;;0.80;;
66521;SDS011;53349;53.538;8.584;2024-03-23T13:18:15;3.28;;;0.63;;
66521;SDS011;53349;53.538;8.584;2024-03-23T13:20:40;5.83;;;0.83;;
66521;SDS011;53349;53.538;8.584;2024-03-23T13:23:05;4.80;;;0.77;;
66521;SDS011;53349;53.538;8.584;2024-03-23T13:25:31;6.57;;;1.20;;
66521;SDS011;53349;53.538;8.584;2024-03-23T13:27:56;6.93;;;1.07;;
66521;SDS011;53349;53.538;8.584;2024-03-23T13:30:21;4.50;;;1.10;;
66521;SDS011;53349;53.538;8.584;2024-03-23T13:32:47;6.32;;;1.30;;
66521;SDS011;53349;53.538;8.584;2024-03-23T13:35:12;5.78;;;1.40;;
66521;SDS011;53349;53.538;8.584;2024-03-23T13:37:37;5.93;;;1.33;;
66521;SDS011;53349;53.538;8.584;2024-03-23T13:40:03;6.67;;;1.10;;
66521;SDS011;53349;53.538;8.584;2024-03-23T13:42:28;5.93;;;1.13;;
66521;SDS011;53349;53.538;8.584;2024-03-23T13:44:54;6.63;;;1.10;;
66521;SDS011;53349;53.538;8.584;2024-03-23T13:47:19;6.53;;;1.27;;
66521;SDS011;53349;53.538;8.584;2024-03-23T13:49:44;5.80;;;0.90;;
66521;SDS011;53349;53.538;8.584;2024-03-23T13:52:10;6.50;;;1.10;;
66521;SDS011;53349;53.538;8.584;2024-03-23T13:54:35;7.00;;;1.10;;
66521;SDS011;53349;53.538;8.584;2024-03-23T13:57:00;6.17;;;1.20;;
66521;SDS011;53349;53.538;8.584;2024-03-23T13:59:26;6.40;;;1.20;;
66521;SDS011;53349;53.538;8.584;2024-03-23T14:01:51;6.27;;;0.90;;
66521;SDS011;53349;53.538;8.584;2024-03-23T14:04:17;6.73;;;1.10;;
66521;SDS011;53349;53.538;8.584;2024-03-23T14:06:43;6.25;;;1.10;;
66521;SDS011;53349;53.538;8.584;2024-03-23T14:09:08;5.68;;;1.10;;
66521;SDS011;53349;53.538;8.584;2024-03-23T14:11:34;5.80;;;1.00;;
66521;SDS011;53349;53.538;8.584;2024-03-23T14:14:00;6.45;;;0.90;;
66521;SDS011;53349;53.538;8.584;2024-03-23T14:16:25;6.43;;;1.00;;
66521;SDS011;53349;53.538;8.584;2024-03-23T14:18:51;4.43;;;0.90;;
66521;SDS011;53349;53.538;8.584;2024-03-23T14:21:16;6.30;;;1.00;;
66521;SDS011;53349;53.538;8.584;2024-03-23T14:23:41;6.07;;;1.07;;
66521;SDS011;53349;53.538;8.584;2024-03-23T14:26:06;5.53;;;1.10;;
66521;SDS011;53349;53.538;8.584;2024-03-23T14:28:32;6.17;;;1.07;;
66521;SDS011;53349;53.538;8.584;2024-03-23T14:30:57;3.65;;;0.80;;
66521;SDS011;53349;53.538;8.584;2024-03-23T14:33:22;5.40;;;0.93;;
66521;SDS011;53349;53.538;8.584;2024-03-23T14:35:54;4.57;;;0.97;;
66521;SDS011;53349;53.538;8.584;2024-03-23T14:38:20;7.40;;;1.27;;
66521;SDS011;53349;53.538;8.584;2024-03-23T14:40:45;4.05;;;0.65;;
66521;SDS011;53349;53.538;8.584;2024-03-23T14:43:11;4.87;;;0.73;;
66521;SDS011;53349;53.538;8.584;2024-03-23T14:45:37;6.35;;;0.80;;
66521;SDS011;53349;53.538;8.584;2024-03-23T14:48:02;4.30;;;0.60;;
66521;SDS011;53349;53.538;8.584;2024-03-23T14:50:27;6.80;;;0.90;;
66521;SDS011;53349;53.538;8.584;2024-03-23T14:52:53;7.67;;;0.70;;
66521;SDS011;53349;53.538;8.584;2024-03-23T14:55:18;5.67;;;0.60;;
66521;SDS011;53349;53.538;8.584;2024-03-23T14:57:43;2.80;;;0.70;;
66521;SDS011;53349;53.538;8.584;2024-03-23T15:00:09;6.43;;;0.70;;
66521;SDS011;53349;53.538;8.584;2024-03-23T15:02:35;6.93;;;0.70;;
66521;SDS011;53349;53.538;8.584;2024-03-23T15:05:00;3.37;;;0.63;;
66521;SDS011;53349;53.538;8.584;2024-03-23T15:07:26;3.00;;;0.65;;
66521;SDS011;53349;53.538;8.584;2024-03-23T15:09:51;5.97;;;0.80;;
66521;SDS011;53349;53.538;8.584;2024-03-23T15:12:16;5.73;;;0.83;;
66521;SDS011;53349;53.538;8.584;2024-03-23T15:14:42;5.53;;;0.67;;
66521;SDS011;53349;53.538;8.584;2024-03-23T15:17:07;3.90;;;0.90;;
66521;SDS011;53349;53.538;8.584;2024-03-23T15:19:32;9.33;;;0.90;;
66521;SDS011;53349;53.538;8.584;2024-03-23T15:21:58;5.43;;;0.90;;
66521;SDS011;53349;53.538;8.584;2024-03-23T15:24:23;3.00;;;0.75;;
66521;SDS011;53349;53.538;8.584;2024-03-23T15:26:48;4.70;;;0.80;;
66521;SDS011;53349;53.538;8.584;2024-03-23T15:29:14;3.90;;;0.50;;
66521;SDS011;53349;53.538;8.584;2024-03-23T15:31:39;7.47;;;0.90;;
66521;SDS011;53349;53.538;8.584;2024-03-23T15:34:04;5.63;;;0.70;;
66521;SDS011;53349;53.538;8.584;2024-03-23T15:36:30;8.67;;;0.93;;
66521;SDS011;53349;53.538;8.584;2024-03-23T15:38:55;4.83;;;1.20;;
66521;SDS011;53349;53.538;8.584;2024-03-23T15:41:20;4.22;;;0.90;;